Terminal Aerodrome Forecast
Issued by NWS

Home | Current Version | Previous Version | Text Only | Print | Product List | Glossary On
Versions: 1 2 3 4 5 6 7 8 9 10 11 12 13 14 15
399
FTUS43 KGRR 280520 AAC
TAFLAN
TAF AMD
KLAN 280520Z 2805/2824 20004KT P6SM SCT006 BKN040
     FM280900 24004KT 4SM BR BKN025
     FM281300 28004KT P6SM BKN040
     FM281700 28006KT P6SM SCT040=

USA.gov is the U.S. government's official web portal to all federal, state and local government web resources and services.